sensor_id;sensor_type;location;lat;lon;timestamp;pressure;altitude;pressure_sealevel;temperature;humidity
57234;BME280;43090;52.604;13.318;2023-01-24T00:00:15;103452.28;;;-0.06;98.95
57234;BME280;43090;52.604;13.318;2023-01-24T00:02:41;103430.72;;;0.18;98.16
57234;BME280;43090;52.604;13.318;2023-01-24T00:05:08;103391.75;;;-0.02;97.33
57234;BME280;43090;52.604;13.318;2023-01-24T00:10:24;103412.78;;;-0.05;97.68
57234;BME280;43090;52.604;13.318;2023-01-24T00:12:51;103405.91;;;0.04;97.14
57234;BME280;43090;52.604;13.318;2023-01-24T00:15:18;103456.50;;;0.38;96.66
57234;BME280;43090;52.604;13.318;2023-01-24T00:17:44;103426.09;;;0.03;97.49
57234;BME280;43090;52.604;13.318;2023-01-24T00:20:11;103395.06;;;-0.15;98.55
57234;BME280;43090;52.604;13.318;2023-01-24T00:22:38;103405.34;;;0.25;97.05
57234;BME280;43090;52.604;13.318;2023-01-24T00:25:05;103404.34;;;0.16;96.49
57234;BME280;43090;52.604;13.318;2023-01-24T00:27:32;103403.19;;;-0.03;96.87
57234;BME280;43090;52.604;13.318;2023-01-24T00:30:02;103429.00;;;0.20;97.78
57234;BME280;43090;52.604;13.318;2023-01-24T00:32:29;103425.28;;;0.09;98.33
57234;BME280;43090;52.604;13.318;2023-01-24T00:34:55;103445.22;;;0.48;97.62
57234;BME280;43090;52.604;13.318;2023-01-24T00:37:21;103414.69;;;0.04;98.71
57234;BME280;43090;52.604;13.318;2023-01-24T00:39:48;103406.88;;;0.12;98.35
57234;BME280;43090;52.604;13.318;2023-01-24T00:42:14;103404.63;;;0.37;97.33
57234;BME280;43090;52.604;13.318;2023-01-24T00:44:41;103436.00;;;0.20;97.40
57234;BME280;43090;52.604;13.318;2023-01-24T00:47:07;103388.47;;;-0.43;99.10
57234;BME280;43090;52.604;13.318;2023-01-24T00:49:34;103435.41;;;0.38;98.37
57234;BME280;43090;52.604;13.318;2023-01-24T00:52:01;103396.84;;;-0.12;98.58
57234;BME280;43090;52.604;13.318;2023-01-24T00:54:27;103431.94;;;0.42;97.70
57234;BME280;43090;52.604;13.318;2023-01-24T00:56:54;103436.00;;;0.21;97.28
57234;BME280;43090;52.604;13.318;2023-01-24T00:59:20;103395.34;;;0.02;97.12
57234;BME280;43090;52.604;13.318;2023-01-24T01:01:47;103399.66;;;-0.02;97.68
57234;BME280;43090;52.604;13.318;2023-01-24T01:04:13;103445.84;;;0.31;97.67
57234;BME280;43090;52.604;13.318;2023-01-24T01:06:40;103395.44;;;0.07;97.14
57234;BME280;43090;52.604;13.318;2023-01-24T01:09:06;103448.81;;;0.53;96.46
57234;BME280;43090;52.604;13.318;2023-01-24T01:11:34;103447.66;;;0.36;97.83
57234;BME280;43090;52.604;13.318;2023-01-24T01:14:02;103397.75;;;-0.12;97.03
57234;BME280;43090;52.604;13.318;2023-01-24T01:16:29;103444.03;;;0.27;97.82
57234;BME280;43090;52.604;13.318;2023-01-24T01:18:55;103410.41;;;0.11;97.66
57234;BME280;43090;52.604;13.318;2023-01-24T01:21:22;103414.03;;;0.18;97.19
57234;BME280;43090;52.604;13.318;2023-01-24T01:23:49;103428.31;;;0.32;97.62
57234;BME280;43090;52.604;13.318;2023-01-24T01:26:17;103461.34;;;0.11;96.32
57234;BME280;43090;52.604;13.318;2023-01-24T01:28:45;103401.69;;;-0.39;96.99
57234;BME280;43090;52.604;13.318;2023-01-24T01:31:12;103420.06;;;0.12;95.99
57234;BME280;43090;52.604;13.318;2023-01-24T01:33:39;103446.34;;;0.07;95.57
57234;BME280;43090;52.604;13.318;2023-01-24T01:36:05;103468.09;;;0.49;93.96
57234;BME280;43090;52.604;13.318;2023-01-24T01:38:32;103433.25;;;0.12;94.48
57234;BME280;43090;52.604;13.318;2023-01-24T01:40:58;103456.38;;;0.30;94.25
57234;BME280;43090;52.604;13.318;2023-01-24T01:43:28;103407.03;;;-0.36;94.70
57234;BME280;43090;52.604;13.318;2023-01-24T01:45:59;103432.00;;;-0.12;93.54
57234;BME280;43090;52.604;13.318;2023-01-24T01:48:38;103451.63;;;0.09;93.36
57234;BME280;43090;52.604;13.318;2023-01-24T01:51:26;103417.03;;;-0.14;94.65
57234;BME280;43090;52.604;13.318;2023-01-24T01:54:04;103447.34;;;0.15;94.17
57234;BME280;43090;52.604;13.318;2023-01-24T01:56:38;103451.13;;;0.33;92.92
57234;BME280;43090;52.604;13.318;2023-01-24T01:59:12;103404.03;;;-0.04;92.19
57234;BME280;43090;52.604;13.318;2023-01-24T02:01:41;103407.94;;;-0.32;92.84
57234;BME280;43090;52.604;13.318;2023-01-24T02:04:22;103428.13;;;-0.32;92.45
57234;BME280;43090;52.604;13.318;2023-01-24T02:06:55;103459.47;;;0.04;91.38
57234;BME280;43090;52.604;13.318;2023-01-24T02:09:27;103438.63;;;-0.34;92.60
57234;BME280;43090;52.604;13.318;2023-01-24T02:11:57;103456.00;;;-0.44;92.03
57234;BME280;43090;52.604;13.318;2023-01-24T02:14:26;103407.91;;;-0.35;92.41
57234;BME280;43090;52.604;13.318;2023-01-24T02:17:11;103408.59;;;-0.45;92.30
57234;BME280;43090;52.604;13.318;2023-01-24T02:19:47;103466.84;;;-0.25;92.30
57234;BME280;43090;52.604;13.318;2023-01-24T02:22:17;103470.53;;;-0.17;93.55
57234;BME280;43090;52.604;13.318;2023-01-24T02:24:55;103477.34;;;-0.28;92.92
57234;BME280;43090;52.604;13.318;2023-01-24T02:27:25;103460.81;;;-0.21;92.00
57234;BME280;43090;52.604;13.318;2023-01-24T02:29:55;103455.16;;;-0.41;91.50
57234;BME280;43090;52.604;13.318;2023-01-24T02:32:23;103425.88;;;-0.58;90.10
57234;BME280;43090;52.604;13.318;2023-01-24T02:34:49;103438.53;;;-0.39;90.92
57234;BME280;43090;52.604;13.318;2023-01-24T02:37:16;103472.13;;;-0.25;90.34
57234;BME280;43090;52.604;13.318;2023-01-24T02:39:47;103458.03;;;-0.29;91.20
57234;BME280;43090;52.604;13.318;2023-01-24T02:42:20;103438.69;;;-0.29;90.52
57234;BME280;43090;52.604;13.318;2023-01-24T02:45:05;103470.69;;;-0.08;89.44
57234;BME280;43090;52.604;13.318;2023-01-24T02:47:37;103453.63;;;-0.30;89.93
57234;BME280;43090;52.604;13.318;2023-01-24T02:50:05;103404.56;;;-0.74;90.11
57234;BME280;43090;52.604;13.318;2023-01-24T02:52:34;103465.97;;;-0.27;90.07
57234;BME280;43090;52.604;13.318;2023-01-24T02:55:19;103421.56;;;-0.56;89.54
57234;BME280;43090;52.604;13.318;2023-01-24T02:57:47;103407.94;;;-0.81;90.66
57234;BME280;43090;52.604;13.318;2023-01-24T03:00:34;103453.47;;;-0.39;89.76
57234;BME280;43090;52.604;13.318;2023-01-24T03:03:01;103427.13;;;-0.39;89.65
57234;BME280;43090;52.604;13.318;2023-01-24T03:05:31;103437.63;;;-0.41;88.21
57234;BME280;43090;52.604;13.318;2023-01-24T03:08:17;103437.16;;;-0.18;87.97
57234;BME280;43090;52.604;13.318;2023-01-24T03:10:44;103473.16;;;-0.17;88.08
57234;BME280;43090;52.604;13.318;2023-01-24T03:13:13;103429.91;;;-0.79;88.31
57234;BME280;43090;52.604;13.318;2023-01-24T03:16:02;103454.56;;;-0.26;88.10
57234;BME280;43090;52.604;13.318;2023-01-24T03:18:47;103467.06;;;-0.62;88.57
57234;BME280;43090;52.604;13.318;2023-01-24T03:21:32;103461.72;;;-0.19;88.89
57234;BME280;43090;52.604;13.318;2023-01-24T03:24:17;103458.09;;;-0.24;89.55
57234;BME280;43090;52.604;13.318;2023-01-24T03:27:02;103456.00;;;0.07;88.73
57234;BME280;43090;52.604;13.318;2023-01-24T03:29:47;103467.59;;;0.18;88.57
57234;BME280;43090;52.604;13.318;2023-01-24T03:32:32;103444.25;;;-0.14;88.61
57234;BME280;43090;52.604;13.318;2023-01-24T03:35:18;103462.72;;;-0.11;88.10
57234;BME280;43090;52.604;13.318;2023-01-24T03:37:45;103432.75;;;-0.19;89.13
57234;BME280;43090;52.604;13.318;2023-01-24T03:40:30;103451.38;;;-0.07;88.31
57234;BME280;43090;52.604;13.318;2023-01-24T03:42:58;103445.88;;;-0.21;86.92
57234;BME280;43090;52.604;13.318;2023-01-24T03:45:28;103451.06;;;-0.25;87.89
57234;BME280;43090;52.604;13.318;2023-01-24T03:47:57;103445.78;;;-0.25;88.38
57234;BME280;43090;52.604;13.318;2023-01-24T03:50:33;103424.69;;;-0.27;86.73
57234;BME280;43090;52.604;13.318;2023-01-24T03:53:21;103440.63;;;-0.21;87.32
57234;BME280;43090;52.604;13.318;2023-01-24T03:55:53;103430.25;;;-0.11;87.23
57234;BME280;43090;52.604;13.318;2023-01-24T03:58:20;103445.00;;;-0.21;88.31
57234;BME280;43090;52.604;13.318;2023-01-24T04:00:47;103454.50;;;0.23;87.30
57234;BME280;43090;52.604;13.318;2023-01-24T04:03:14;103454.53;;;0.24;85.31
57234;BME280;43090;52.604;13.318;2023-01-24T04:05:40;103451.91;;;0.24;85.82
57234;BME280;43090;52.604;13.318;2023-01-24T04:08:07;103431.06;;;-0.14;86.40
57234;BME280;43090;52.604;13.318;2023-01-24T04:10:34;103426.28;;;-0.38;88.34
57234;BME280;43090;52.604;13.318;2023-01-24T04:13:00;103435.91;;;-0.39;88.98
57234;BME280;43090;52.604;13.318;2023-01-24T04:15:29;103411.47;;;-0.33;89.89
57234;BME280;43090;52.604;13.318;2023-01-24T04:17:57;103426.31;;;-0.37;87.71
57234;BME280;43090;52.604;13.318;2023-01-24T04:20:25;103428.00;;;-0.39;88.26
57234;BME280;43090;52.604;13.318;2023-01-24T04:22:52;103451.50;;;-0.01;87.54
57234;BME280;43090;52.604;13.318;2023-01-24T04:25:19;103402.66;;;-0.34;87.35
57234;BME280;43090;52.604;13.318;2023-01-24T04:27:46;103451.44;;;-0.05;87.87
57234;BME280;43090;52.604;13.318;2023-01-24T04:30:13;103464.22;;;-0.25;87.93
57234;BME280;43090;52.604;13.318;2023-01-24T04:32:40;103469.09;;;-0.47;88.32
57234;BME280;43090;52.604;13.318;2023-01-24T04:35:07;103448.47;;;-0.71;90.12
57234;BME280;43090;52.604;13.318;2023-01-24T04:37:33;103432.19;;;-0.52;89.44
57234;BME280;43090;52.604;13.318;2023-01-24T04:40:00;103452.97;;;-0.18;89.12
57234;BME280;43090;52.604;13.318;2023-01-24T04:42:27;103425.22;;;-0.46;88.57
57234;BME280;43090;52.604;13.318;2023-01-24T04:44:54;103449.50;;;-0.14;88.49
57234;BME280;43090;52.604;13.318;2023-01-24T04:47:20;103426.44;;;-0.78;89.47
57234;BME280;43090;52.604;13.318;2023-01-24T04:49:47;103451.50;;;-0.49;89.13
57234;BME280;43090;52.604;13.318;2023-01-24T04:52:14;103433.00;;;-0.54;90.14
57234;BME280;43090;52.604;13.318;2023-01-24T04:54:40;103453.91;;;-0.14;89.27
57234;BME280;43090;52.604;13.318;2023-01-24T04:57:07;103451.75;;;0.15;87.78
57234;BME280;43090;52.604;13.318;2023-01-24T04:59:34;103412.56;;;-0.19;87.27
57234;BME280;43090;52.604;13.318;2023-01-24T05:02:03;103392.94;;;-0.38;88.60
57234;BME280;43090;52.604;13.318;2023-01-24T05:04:33;103413.78;;;-0.96;88.38
57234;BME280;43090;52.604;13.318;2023-01-24T05:07:01;103387.19;;;-0.65;88.34
57234;BME280;43090;52.604;13.318;2023-01-24T05:09:27;103402.66;;;-0.34;86.63
57234;BME280;43090;52.604;13.318;2023-01-24T05:11:54;103393.78;;;-0.86;88.05
57234;BME280;43090;52.604;13.318;2023-01-24T05:14:21;103442.31;;;-0.23;88.10
57234;BME280;43090;52.604;13.318;2023-01-24T05:16:50;103413.19;;;-0.32;88.11
57234;BME280;43090;52.604;13.318;2023-01-24T05:19:17;103389.44;;;-0.37;87.80
57234;BME280;43090;52.604;13.318;2023-01-24T05:21:44;103429.91;;;-0.31;88.01
57234;BME280;43090;52.604;13.318;2023-01-24T05:24:10;103402.66;;;-0.81;89.23
57234;BME280;43090;52.604;13.318;2023-01-24T05:26:37;103429.63;;;-0.47;88.67
57234;BME280;43090;52.604;13.318;2023-01-24T05:29:03;103454.94;;;-0.05;88.63
57234;BME280;43090;52.604;13.318;2023-01-24T05:31:30;103419.38;;;-0.31;86.86
57234;BME280;43090;52.604;13.318;2023-01-24T05:33:56;103424.66;;;-0.30;87.17
57234;BME280;43090;52.604;13.318;2023-01-24T05:36:23;103444.06;;;-0.25;88.45
57234;BME280;43090;52.604;13.318;2023-01-24T05:38:50;103428.16;;;-0.29;89.00
57234;BME280;43090;52.604;13.318;2023-01-24T05:41:18;103434.19;;;-0.38;87.46
57234;BME280;43090;52.604;13.318;2023-01-24T05:43:46;103436.84;;;-0.37;87.77
57234;BME280;43090;52.604;13.318;2023-01-24T05:46:15;103428.00;;;-0.39;86.31
57234;BME280;43090;52.604;13.318;2023-01-24T05:48:43;103404.78;;;-0.61;85.54
57234;BME280;43090;52.604;13.318;2023-01-24T05:51:12;103425.22;;;-0.48;86.67
57234;BME280;43090;52.604;13.318;2023-01-24T05:53:41;103453.41;;;-0.42;86.85
57234;BME280;43090;52.604;13.318;2023-01-24T05:56:13;103475.84;;;-0.61;86.68
57234;BME280;43090;52.604;13.318;2023-01-24T05:58:42;103451.50;;;-0.49;86.96
57234;BME280;43090;52.604;13.318;2023-01-24T06:01:11;103472.91;;;-0.31;86.13
57234;BME280;43090;52.604;13.318;2023-01-24T06:03:40;103474.03;;;-0.18;86.38
57234;BME280;43090;52.604;13.318;2023-01-24T06:06:10;103442.94;;;-0.38;87.29
57234;BME280;43090;52.604;13.318;2023-01-24T06:08:38;103449.56;;;-0.60;87.54
57234;BME280;43090;52.604;13.318;2023-01-24T06:11:16;103454.44;;;-0.34;85.70
57234;BME280;43090;52.604;13.318;2023-01-24T06:13:44;103466.50;;;-0.45;86.56
57234;BME280;43090;52.604;13.318;2023-01-24T06:16:13;103455.25;;;-0.38;85.27
57234;BME280;43090;52.604;13.318;2023-01-24T06:18:41;103479.44;;;-0.09;85.39
57234;BME280;43090;52.604;13.318;2023-01-24T06:23:42;103471.72;;;-0.47;86.41
57234;BME280;43090;52.604;13.318;2023-01-24T06:26:09;103448.81;;;-0.54;85.90
57234;BME280;43090;52.604;13.318;2023-01-24T06:28:37;103476.09;;;-0.93;86.79
57234;BME280;43090;52.604;13.318;2023-01-24T06:31:34;103484.91;;;-0.45;86.21
57234;BME280;43090;52.604;13.318;2023-01-24T06:34:17;103495.78;;;-0.28;86.16
57234;BME280;43090;52.604;13.318;2023-01-24T06:37:15;103487.56;;;-0.45;87.87
57234;BME280;43090;52.604;13.318;2023-01-24T06:39:51;103494.50;;;-0.49;86.76
57234;BME280;43090;52.604;13.318;2023-01-24T06:42:19;103504.06;;;-0.54;86.04
57234;BME280;43090;52.604;13.318;2023-01-24T06:44:46;103496.53;;;-0.36;85.26
57234;BME280;43090;52.604;13.318;2023-01-24T06:47:13;103487.63;;;-0.42;86.26
57234;BME280;43090;52.604;13.318;2023-01-24T06:49:40;103461.34;;;-0.85;86.93
57234;BME280;43090;52.604;13.318;2023-01-24T06:52:07;103514.25;;;-0.25;86.26
57234;BME280;43090;52.604;13.318;2023-01-24T06:54:35;103480.66;;;-0.39;85.93
57234;BME280;43090;52.604;13.318;2023-01-24T06:57:03;103462.47;;;-0.74;86.74
57234;BME280;43090;52.604;13.318;2023-01-24T06:59:30;103499.44;;;-0.20;85.49
57234;BME280;43090;52.604;13.318;2023-01-24T07:01:56;103520.63;;;-0.12;85.48
57234;BME280;43090;52.604;13.318;2023-01-24T07:04:23;103501.88;;;-0.31;85.81
57234;BME280;43090;52.604;13.318;2023-01-24T07:06:50;103490.81;;;-0.11;84.56
57234;BME280;43090;52.604;13.318;2023-01-24T07:09:21;103494.94;;;-0.72;84.83
57234;BME280;43090;52.604;13.318;2023-01-24T07:11:48;103485.66;;;-0.54;86.35
57234;BME280;43090;52.604;13.318;2023-01-24T07:14:27;103518.28;;;-0.44;85.68
57234;BME280;43090;52.604;13.318;2023-01-24T07:16:58;103509.88;;;-0.71;86.70
57234;BME280;43090;52.604;13.318;2023-01-24T07:19:30;103481.75;;;-1.16;86.89
57234;BME280;43090;52.604;13.318;2023-01-24T07:22:10;103543.03;;;-0.79;87.07
57234;BME280;43090;52.604;13.318;2023-01-24T07:24:54;103492.22;;;-1.18;88.30
57234;BME280;43090;52.604;13.318;2023-01-24T07:27:50;103502.63;;;-0.81;87.17
57234;BME280;43090;52.604;13.318;2023-01-24T07:30:19;103545.84;;;-0.70;87.44
57234;BME280;43090;52.604;13.318;2023-01-24T07:32:49;103502.97;;;-0.65;86.81
57234;BME280;43090;52.604;13.318;2023-01-24T07:35:16;103500.28;;;-0.69;86.91
57234;BME280;43090;52.604;13.318;2023-01-24T07:38:19;103494.44;;;-0.52;85.83
57234;BME280;43090;52.604;13.318;2023-01-24T07:41:01;103493.75;;;-0.43;86.22
57234;BME280;43090;52.604;13.318;2023-01-24T07:44:20;103488.69;;;-0.77;86.38
57234;BME280;43090;52.604;13.318;2023-01-24T07:47:19;103497.09;;;-0.51;85.47
57234;BME280;43090;52.604;13.318;2023-01-24T07:49:51;103493.03;;;-0.35;85.74
57234;BME280;43090;52.604;13.318;2023-01-24T07:52:20;103515.03;;;-0.31;84.95
57234;BME280;43090;52.604;13.318;2023-01-24T07:54:50;103529.81;;;-0.38;86.03
57234;BME280;43090;52.604;13.318;2023-01-24T07:57:20;103513.09;;;-0.40;85.16
57234;BME280;43090;52.604;13.318;2023-01-24T07:59:46;103552.91;;;-0.23;85.15
57234;BME280;43090;52.604;13.318;2023-01-24T08:02:16;103533.94;;;-0.52;87.38
57234;BME280;43090;52.604;13.318;2023-01-24T08:04:43;103536.44;;;-0.58;86.69
57234;BME280;43090;52.604;13.318;2023-01-24T08:07:09;103571.03;;;0.08;86.46
57234;BME280;43090;52.604;13.318;2023-01-24T08:09:47;103521.63;;;-0.53;86.53
57234;BME280;43090;52.604;13.318;2023-01-24T08:12:21;103520.44;;;-1.09;88.64
57234;BME280;43090;52.604;13.318;2023-01-24T08:14:48;103560.63;;;-0.76;89.03
57234;BME280;43090;52.604;13.318;2023-01-24T08:17:29;103561.72;;;-0.65;88.02
57234;BME280;43090;52.604;13.318;2023-01-24T08:19:59;103529.84;;;-0.80;88.49
57234;BME280;43090;52.604;13.318;2023-01-24T08:22:42;103509.53;;;-0.86;88.73
57234;BME280;43090;52.604;13.318;2023-01-24T08:25:23;103524.31;;;-0.52;87.63
57234;BME280;43090;52.604;13.318;2023-01-24T08:27:53;103531.97;;;-0.18;87.56
57234;BME280;43090;52.604;13.318;2023-01-24T08:30:25;103531.34;;;-0.49;86.37
57234;BME280;43090;52.604;13.318;2023-01-24T08:33:03;103535.00;;;-0.42;86.13
57234;BME280;43090;52.604;13.318;2023-01-24T08:35:33;103541.16;;;-0.42;87.92
57234;BME280;43090;52.604;13.318;2023-01-24T08:38:05;103512.84;;;-0.54;86.71
57234;BME280;43090;52.604;13.318;2023-01-24T08:40:34;103540.50;;;-0.31;87.68
57234;BME280;43090;52.604;13.318;2023-01-24T08:43:14;103539.56;;;-0.34;87.11
57234;BME280;43090;52.604;13.318;2023-01-24T08:45:41;103522.41;;;-0.57;87.24
57234;BME280;43090;52.604;13.318;2023-01-24T08:48:07;103576.78;;;-0.15;87.50
57234;BME280;43090;52.604;13.318;2023-01-24T08:50:34;103551.19;;;-0.22;86.53
57234;BME280;43090;52.604;13.318;2023-01-24T08:53:00;103573.81;;;0.14;86.85
57234;BME280;43090;52.604;13.318;2023-01-24T08:55:27;103546.94;;;-0.15;87.67
57234;BME280;43090;52.604;13.318;2023-01-24T08:58:01;103533.84;;;-0.11;86.12
57234;BME280;43090;52.604;13.318;2023-01-24T09:00:28;103534.41;;;-0.29;85.21
57234;BME280;43090;52.604;13.318;2023-01-24T09:02:55;103559.09;;;0.25;85.68
57234;BME280;43090;52.604;13.318;2023-01-24T09:05:25;103527.19;;;0.10;85.40
57234;BME280;43090;52.604;13.318;2023-01-24T09:07:52;103530.16;;;0.30;85.15
57234;BME280;43090;52.604;13.318;2023-01-24T09:10:18;103535.16;;;0.14;85.72
57234;BME280;43090;52.604;13.318;2023-01-24T09:12:45;103576.59;;;0.23;86.01
57234;BME280;43090;52.604;13.318;2023-01-24T09:15:11;103543.31;;;-0.21;86.44
57234;BME280;43090;52.604;13.318;2023-01-24T09:17:38;103580.91;;;-0.28;86.03
57234;BME280;43090;52.604;13.318;2023-01-24T09:20:06;103577.25;;;0.10;86.84
57234;BME280;43090;52.604;13.318;2023-01-24T09:22:33;103525.75;;;-0.20;86.60
57234;BME280;43090;52.604;13.318;2023-01-24T09:25:00;103580.16;;;0.25;86.52
57234;BME280;43090;52.604;13.318;2023-01-24T09:27:27;103537.88;;;-0.30;87.01
57234;BME280;43090;52.604;13.318;2023-01-24T09:29:54;103580.41;;;0.41;85.48
57234;BME280;43090;52.604;13.318;2023-01-24T09:32:20;103585.50;;;-0.18;87.08
57234;BME280;43090;52.604;13.318;2023-01-24T09:34:47;103558.63;;;0.01;86.75
57234;BME280;43090;52.604;13.318;2023-01-24T09:37:21;103571.28;;;0.19;85.43
57234;BME280;43090;52.604;13.318;2023-01-24T09:39:54;103549.09;;;0.07;85.26
57234;BME280;43090;52.604;13.318;2023-01-24T09:42:29;103555.03;;;0.46;85.88
57234;BME280;43090;52.604;13.318;2023-01-24T09:45:27;103516.56;;;0.05;85.30
57234;BME280;43090;52.604;13.318;2023-01-24T09:48:06;103518.13;;;-0.06;85.48
57234;BME280;43090;52.604;13.318;2023-01-24T09:50:53;103540.75;;;-0.16;84.64
57234;BME280;43090;52.604;13.318;2023-01-24T09:53:23;103572.31;;;-0.19;85.75
57234;BME280;43090;52.604;13.318;2023-01-24T09:55:52;103549.63;;;-0.11;86.72
57234;BME280;43090;52.604;13.318;2023-01-24T09:58:27;103558.16;;;0.23;85.25
57234;BME280;43090;52.604;13.318;2023-01-24T10:01:00;103575.44;;;0.07;85.53
57234;BME280;43090;52.604;13.318;2023-01-24T10:03:27;103526.56;;;0.25;84.21
57234;BME280;43090;52.604;13.318;2023-01-24T10:05:56;103534.63;;;0.36;84.57
57234;BME280;43090;52.604;13.318;2023-01-24T10:08:37;103518.13;;;0.46;83.66
57234;BME280;43090;52.604;13.318;2023-01-24T10:11:22;103531.03;;;0.30;84.43
57234;BME280;43090;52.604;13.318;2023-01-24T10:19:45;103543.31;;;0.28;83.35
57234;BME280;43090;52.604;13.318;2023-01-24T10:25:06;103523.69;;;0.09;84.66
57234;BME280;43090;52.604;13.318;2023-01-24T10:27:42;103531.41;;;0.52;84.14
57234;BME280;43090;52.604;13.318;2023-01-24T10:30:19;103512.97;;;0.55;83.66
57234;BME280;43090;52.604;13.318;2023-01-24T10:32:50;103510.75;;;0.83;82.49
57234;BME280;43090;52.604;13.318;2023-01-24T10:35:28;103539.88;;;0.91;80.92
57234;BME280;43090;52.604;13.318;2023-01-24T10:37:59;103507.97;;;0.72;81.41
57234;BME280;43090;52.604;13.318;2023-01-24T10:40:27;103503.97;;;0.41;82.91
57234;BME280;43090;52.604;13.318;2023-01-24T10:42:54;103547.09;;;1.04;82.22
57234;BME280;43090;52.604;13.318;2023-01-24T10:48:18;103522.66;;;0.55;81.38
57234;BME280;43090;52.604;13.318;2023-01-24T10:50:49;103511.94;;;0.44;82.60
57234;BME280;43090;52.604;13.318;2023-01-24T10:53:24;103492.69;;;0.49;82.63
57234;BME280;43090;52.604;13.318;2023-01-24T10:56:01;103491.44;;;0.84;84.12
57234;BME280;43090;52.604;13.318;2023-01-24T10:58:40;103511.72;;;0.90;83.20
57234;BME280;43090;52.604;13.318;2023-01-24T11:01:22;103546.25;;;1.07;82.59
57234;BME280;43090;52.604;13.318;2023-01-24T11:03:51;103536.56;;;1.06;82.02
57234;BME280;43090;52.604;13.318;2023-01-24T11:06:53;103549.50;;;1.55;80.45
57234;BME280;43090;52.604;13.318;2023-01-24T11:09:49;103518.34;;;1.24;79.33
57234;BME280;43090;52.604;13.318;2023-01-24T11:13:05;103494.81;;;0.75;80.64
57234;BME280;43090;52.604;13.318;2023-01-24T11:16:03;103482.31;;;0.62;81.55
57234;BME280;43090;52.604;13.318;2023-01-24T11:18:49;103486.81;;;0.11;83.12
57234;BME280;43090;52.604;13.318;2023-01-24T11:21:19;103478.94;;;0.12;83.89
57234;BME280;43090;52.604;13.318;2023-01-24T11:24:01;103508.25;;;0.92;81.52
57234;BME280;43090;52.604;13.318;2023-01-24T11:26:35;103478.16;;;0.78;81.73
57234;BME280;43090;52.604;13.318;2023-01-24T11:29:29;103482.06;;;1.08;81.51
57234;BME280;43090;52.604;13.318;2023-01-24T11:35:08;103467.09;;;0.42;81.43
57234;BME280;43090;52.604;13.318;2023-01-24T11:40:47;103497.38;;;1.35;81.30
57234;BME280;43090;52.604;13.318;2023-01-24T11:48:57;103483.13;;;1.22;80.22
57234;BME280;43090;52.604;13.318;2023-01-24T11:51:41;103495.69;;;1.43;80.04
57234;BME280;43090;52.604;13.318;2023-01-24T11:57:02;103515.75;;;1.27;82.82
57234;BME280;43090;52.604;13.318;2023-01-24T11:59:41;103470.59;;;1.06;83.14
57234;BME280;43090;52.604;13.318;2023-01-24T12:02:23;103504.22;;;1.19;80.80
57234;BME280;43090;52.604;13.318;2023-01-24T12:08:02;103501.38;;;1.82;78.42
57234;BME280;43090;52.604;13.318;2023-01-24T12:19:32;103483.56;;;1.61;81.55
57234;BME280;43090;52.604;13.318;2023-01-24T12:22:11;103482.53;;;1.48;79.98
57234;BME280;43090;52.604;13.318;2023-01-24T12:24:40;103452.13;;;1.06;81.66
57234;BME280;43090;52.604;13.318;2023-01-24T12:27:16;103478.94;;;1.40;80.42
57234;BME280;43090;52.604;13.318;2023-01-24T12:30:13;103484.19;;;1.38;81.11
57234;BME280;43090;52.604;13.318;2023-01-24T12:32:49;103464.53;;;1.11;80.29
57234;BME280;43090;52.604;13.318;2023-01-24T12:35:33;103485.78;;;1.22;82.05
57234;BME280;43090;52.604;13.318;2023-01-24T12:38:13;103480.75;;;1.45;80.09
57234;BME280;43090;52.604;13.318;2023-01-24T12:40:50;103481.44;;;1.29;80.11
57234;BME280;43090;52.604;13.318;2023-01-24T12:43:33;103486.72;;;1.27;80.47
57234;BME280;43090;52.604;13.318;2023-01-24T12:46:14;103450.50;;;0.49;82.32
57234;BME280;43090;52.604;13.318;2023-01-24T12:48:50;103467.97;;;1.06;81.27
57234;BME280;43090;52.604;13.318;2023-01-24T12:51:37;103450.06;;;0.80;80.97
57234;BME280;43090;52.604;13.318;2023-01-24T12:54:13;103499.38;;;0.86;83.04
57234;BME280;43090;52.604;13.318;2023-01-24T12:57:14;103462.78;;;0.47;82.31
57234;BME280;43090;52.604;13.318;2023-01-24T12:59:34;103449.25;;;0.87;80.76
57234;BME280;43090;52.604;13.318;2023-01-24T13:02:16;103486.00;;;0.72;81.70
57234;BME280;43090;52.604;13.318;2023-01-24T13:05:05;103472.16;;;0.90;82.59
57234;BME280;43090;52.604;13.318;2023-01-24T13:07:46;103459.44;;;0.59;82.46
57234;BME280;43090;52.604;13.318;2023-01-24T13:13:00;103461.63;;;0.91;81.30
57234;BME280;43090;52.604;13.318;2023-01-24T13:18:19;103445.34;;;1.25;80.30
57234;BME280;43090;52.604;13.318;2023-01-24T13:23:43;103461.78;;;1.04;80.88
57234;BME280;43090;52.604;13.318;2023-01-24T13:29:25;103457.81;;;1.41;80.26
57234;BME280;43090;52.604;13.318;2023-01-24T13:32:08;103472.28;;;0.99;82.03
57234;BME280;43090;52.604;13.318;2023-01-24T13:35:01;103441.56;;;1.04;80.25
57234;BME280;43090;52.604;13.318;2023-01-24T13:37:32;103436.97;;;0.86;82.74
57234;BME280;43090;52.604;13.318;2023-01-24T13:42:42;103449.88;;;1.37;81.21
57234;BME280;43090;52.604;13.318;2023-01-24T13:47:53;103452.13;;;1.04;81.75
57234;BME280;43090;52.604;13.318;2023-01-24T13:50:21;103443.09;;;0.85;82.12
57234;BME280;43090;52.604;13.318;2023-01-24T13:52:53;103435.72;;;1.30;80.96
57234;BME280;43090;52.604;13.318;2023-01-24T14:00:50;103454.03;;;1.17;80.83
57234;BME280;43090;52.604;13.318;2023-01-24T14:03:20;103451.41;;;1.17;81.80
57234;BME280;43090;52.604;13.318;2023-01-24T14:11:13;103441.56;;;1.87;78.67
57234;BME280;43090;52.604;13.318;2023-01-24T14:19:22;103448.16;;;1.42;81.79
57234;BME280;43090;52.604;13.318;2023-01-24T14:22:16;103428.66;;;1.27;80.00
57234;BME280;43090;52.604;13.318;2023-01-24T14:25:01;103424.41;;;1.42;81.17
57234;BME280;43090;52.604;13.318;2023-01-24T14:27:37;103444.28;;;1.09;81.86
57234;BME280;43090;52.604;13.318;2023-01-24T14:32:57;103457.06;;;1.52;80.75